Time;durP1;ratioP1;P1;durP2;ratioP2;P2;SDS_P1;SDS_P2;PMS_P1;PMS_P2;Temp;Humidity;BMP_temperature;BMP_pressure;BME280_temperature;BME280_humidity;BME280_pressure;Samples;Min_cycle;Max_cycle;Signal;HPM_P1;HPM_P2
2022/08/03 00:02:12;;;;;;;1.48;1.38;;;;;;;;;;10239137;29;20479;-89
2022/08/03 00:07:14;;;;;;;2.03;1.40;;;;;;;;;;10248118;28;20569;-89
2022/08/03 00:12:17;;;;;;;1.70;1.20;;;;;;;;;;10249832;29;20396;-89
2022/08/03 00:17:19;;;;;;;1.90;1.43;;;;;;;;;;10237453;29;20420;-88
2022/08/03 00:22:21;;;;;;;1.30;1.20;;;;;;;;;;10236500;28;20921;-90
2022/08/03 00:27:26;;;;;;;1.60;1.45;;;;;;;;;;10237137;28;20520;-89
2022/08/03 00:32:28;;;;;;;1.50;1.33;;;;;;;;;;10237462;28;20411;-89
2022/08/03 00:37:30;;;;;;;4.50;1.50;;;;;;;;;;10233644;28;20425;-89
2022/08/03 00:42:33;;;;;;;1.67;1.57;;;;;;;;;;10236623;28;20471;-90
2022/08/03 00:47:35;;;;;;;1.42;1.33;;;;;;;;;;10237151;28;20547;-89
2022/08/03 00:52:37;;;;;;;1.70;1.60;;;;;;;;;;10237555;28;20439;-90
2022/08/03 00:57:42;;;;;;;3.60;1.50;;;;;;;;;;10236794;28;20443;-89
2022/08/03 01:02:44;;;;;;;3.03;1.38;;;;;;;;;;10235106;28;20807;-89
2022/08/03 01:08:00;;;;;;;2.17;1.50;;;;;;;;;;10234224;28;20471;-88
2022/08/03 01:13:10;;;;;;;2.90;1.48;;;;;;;;;;10235432;28;20435;-90
2022/08/03 01:18:17;;;;;;;1.50;1.40;;;;;;;;;;10237169;28;20495;-89
2022/08/03 01:24:00;;;;;;;2.53;1.60;;;;;;;;;;10232980;28;20439;-90
2022/08/03 01:29:19;;;;;;;1.93;1.37;;;;;;;;;;10196869;28;20503;-89
2022/08/03 01:34:25;;;;;;;2.30;1.40;;;;;;;;;;10238129;28;20506;-90
2022/08/03 01:39:30;;;;;;;2.00;1.60;;;;;;;;;;10230137;28;20881;-90
2022/08/03 01:44:37;;;;;;;2.63;1.58;;;;;;;;;;10229233;28;20447;-89
2022/08/03 01:49:44;;;;;;;1.85;1.45;;;;;;;;;;10236831;28;20495;-90
2022/08/03 01:54:50;;;;;;;1.93;1.40;;;;;;;;;;10234094;28;20921;-90
2022/08/03 01:59:55;;;;;;;2.13;1.55;;;;;;;;;;10235814;29;20765;-90
2022/08/03 02:05:00;;;;;;;1.55;1.45;;;;;;;;;;10242009;28;20769;-89
2022/08/03 02:10:04;;;;;;;1.50;1.40;;;;;;;;;;10239038;28;20841;-90
2022/08/03 02:15:08;;;;;;;1.40;1.30;;;;;;;;;;10242365;28;20467;-90
2022/08/03 02:20:13;;;;;;;2.50;1.50;;;;;;;;;;10239806;28;20416;-90
2022/08/03 02:25:16;;;;;;;1.73;1.50;;;;;;;;;;10238593;28;20422;-89
2022/08/03 02:30:19;;;;;;;1.70;1.60;;;;;;;;;;10237586;28;20914;-89
2022/08/03 02:35:26;;;;;;;1.60;1.30;;;;;;;;;;10242751;28;20471;-89
2022/08/03 02:40:30;;;;;;;2.35;1.70;;;;;;;;;;10238545;28;20449;-89
2022/08/03 02:45:35;;;;;;;2.75;1.90;;;;;;;;;;10239675;28;20926;-90
2022/08/03 02:50:39;;;;;;;2.60;1.85;;;;;;;;;;10233920;28;20508;-89
2022/08/03 02:55:42;;;;;;;3.10;2.08;;;;;;;;;;10241077;28;20515;-89
2022/08/03 03:00:45;;;;;;;3.00;1.90;;;;;;;;;;10237796;28;20519;-88
2022/08/03 03:05:49;;;;;;;3.70;2.05;;;;;;;;;;10238124;28;20523;-89
2022/08/03 03:10:52;;;;;;;2.03;1.83;;;;;;;;;;10232536;28;20595;-87
2022/08/03 03:15:56;;;;;;;3.50;2.00;;;;;;;;;;10228100;28;20498;-89
2022/08/03 03:21:01;;;;;;;2.10;1.80;;;;;;;;;;10240530;28;20405;-91
2022/08/03 03:26:04;;;;;;;2.37;1.83;;;;;;;;;;10236622;28;20447;-89
2022/08/03 03:31:07;;;;;;;2.50;2.10;;;;;;;;;;10239688;28;20506;-88
2022/08/03 03:36:10;;;;;;;2.55;2.00;;;;;;;;;;10260211;28;20416;-89
2022/08/03 03:41:13;;;;;;;2.72;2.30;;;;;;;;;;10264496;28;20412;-89
2022/08/03 03:46:15;;;;;;;2.97;2.40;;;;;;;;;;10240382;28;20427;-89
2022/08/03 03:51:18;;;;;;;2.83;2.20;;;;;;;;;;10238200;28;20443;-90
2022/08/03 03:56:20;;;;;;;3.95;2.80;;;;;;;;;;10239462;28;20498;-89
2022/08/03 04:01:23;;;;;;;3.20;2.90;;;;;;;;;;10234678;28;20427;-89
2022/08/03 04:11:50;;;;;;;3.40;2.85;;;;;;;;;;10235790;28;20412;-90
2022/08/03 04:16:56;;;;;;;4.03;2.70;;;;;;;;;;10235349;28;20475;-90
2022/08/03 04:22:02;;;;;;;2.95;2.50;;;;;;;;;;10238940;28;20443;-89
2022/08/03 04:27:08;;;;;;;3.17;2.13;;;;;;;;;;10235725;28;20426;-89
2022/08/03 04:32:11;;;;;;;3.83;2.60;;;;;;;;;;10237961;28;20499;-88
2022/08/03 04:37:25;;;;;;;4.87;2.60;;;;;;;;;;10238343;28;20834;-88
2022/08/03 04:42:28;;;;;;;4.95;2.30;;;;;;;;;;10238323;28;20821;-90
2022/08/03 04:47:33;;;;;;;3.05;2.35;;;;;;;;;;10235462;28;20519;-89
2022/08/03 04:52:36;;;;;;;2.43;2.20;;;;;;;;;;10237221;28;20903;-90
2022/08/03 04:57:38;;;;;;;2.63;2.17;;;;;;;;;;10237610;28;20487;-89
2022/08/03 05:02:40;;;;;;;3.25;2.20;;;;;;;;;;10237188;28;20934;-88
2022/08/03 05:07:44;;;;;;;2.60;2.35;;;;;;;;;;10236679;28;20424;-90
2022/08/03 05:12:47;;;;;;;4.90;2.28;;;;;;;;;;10236470;28;20405;-89
2022/08/03 05:17:49;;;;;;;4.00;2.30;;;;;;;;;;10237665;28;20462;-89
2022/08/03 05:22:52;;;;;;;3.92;2.65;;;;;;;;;;10236936;28;20428;-88
2022/08/03 05:27:54;;;;;;;2.90;2.60;;;;;;;;;;10237217;28;20607;-89
2022/08/03 05:32:56;;;;;;;2.60;2.40;;;;;;;;;;10233311;28;21078;-90
2022/08/03 05:37:59;;;;;;;3.33;2.40;;;;;;;;;;10240419;28;20428;-91
2022/08/03 05:43:02;;;;;;;4.03;2.30;;;;;;;;;;10243420;28;20979;-92
2022/08/03 05:48:05;;;;;;;2.92;2.30;;;;;;;;;;10244007;28;20432;-92
2022/08/03 05:53:08;;;;;;;3.67;2.50;;;;;;;;;;10235759;28;20408;-87
2022/08/03 05:58:10;;;;;;;3.20;2.60;;;;;;;;;;10237429;28;20411;-92
2022/08/03 06:03:11;;;;;;;3.97;2.80;;;;;;;;;;10244310;29;20408;-90
2022/08/03 06:08:16;;;;;;;5.60;3.17;;;;;;;;;;10243735;28;20837;-91
2022/08/03 06:13:18;;;;;;;6.65;3.10;;;;;;;;;;10244316;28;20404;-91
2022/08/03 06:18:20;;;;;;;3.50;2.33;;;;;;;;;;10244138;28;20408;-91
2022/08/03 06:23:23;;;;;;;4.70;2.30;;;;;;;;;;10243810;28;20929;-91
2022/08/03 06:28:25;;;;;;;3.30;2.60;;;;;;;;;;10242610;28;20515;-89
2022/08/03 06:33:27;;;;;;;4.50;2.60;;;;;;;;;;10239925;28;20828;-91
2022/08/03 06:38:30;;;;;;;3.83;2.65;;;;;;;;;;10238874;28;20507;-89
2022/08/03 06:43:36;;;;;;;4.27;2.10;;;;;;;;;;10236438;28;20505;-91
2022/08/03 06:48:38;;;;;;;3.08;1.75;;;;;;;;;;10236414;28;20478;-91
2022/08/03 06:53:41;;;;;;;2.17;1.52;;;;;;;;;;10231727;28;20423;-90
2022/08/03 06:58:43;;;;;;;2.33;1.60;;;;;;;;;;10237111;28;20499;-88
2022/08/03 07:03:44;;;;;;;4.70;1.60;;;;;;;;;;10237333;28;20411;-89
2022/08/03 07:08:48;;;;;;;2.07;1.60;;;;;;;;;;10235285;28;20424;-89
2022/08/03 07:13:50;;;;;;;2.90;1.80;;;;;;;;;;10235246;28;20449;-89
2022/08/03 07:18:51;;;;;;;3.37;1.80;;;;;;;;;;10248624;28;20439;-89
2022/08/03 07:23:55;;;;;;;3.20;1.80;;;;;;;;;;10269918;28;20412;-89
2022/08/03 07:28:57;;;;;;;1.60;1.50;;;;;;;;;;10247275;28;20519;-89
2022/08/03 07:33:58;;;;;;;1.90;1.40;;;;;;;;;;10238259;28;20501;-89
2022/08/03 07:39:02;;;;;;;2.40;1.35;;;;;;;;;;10241105;28;20539;-90
2022/08/03 07:44:04;;;;;;;1.60;1.50;;;;;;;;;;10237742;28;20743;-90
2022/08/03 07:49:06;;;;;;;1.80;1.70;;;;;;;;;;10237447;28;20921;-89
2022/08/03 07:54:10;;;;;;;3.78;1.60;;;;;;;;;;10237386;28;20451;-90
2022/08/03 07:59:12;;;;;;;2.63;1.60;;;;;;;;;;10236333;28;20766;-88
2022/08/03 08:04:14;;;;;;;1.60;1.50;;;;;;;;;;10235577;29;20511;-90
2022/08/03 08:09:17;;;;;;;1.90;1.80;;;;;;;;;;10234926;28;20467;-89
2022/08/03 08:14:19;;;;;;;3.67;2.17;;;;;;;;;;10236074;29;20838;-90
2022/08/03 08:19:21;;;;;;;3.13;1.63;;;;;;;;;;10233883;29;20422;-89
2022/08/03 08:24:24;;;;;;;3.07;1.80;;;;;;;;;;10234412;28;20507;-89
2022/08/03 08:29:26;;;;;;;2.97;1.65;;;;;;;;;;10219231;29;21036;-89
2022/08/03 08:34:28;;;;;;;1.90;1.80;;;;;;;;;;10190900;29;20505;-90
2022/08/03 08:39:33;;;;;;;3.40;1.95;;;;;;;;;;10198103;29;20428;-91
2022/08/03 08:44:35;;;;;;;2.10;1.88;;;;;;;;;;10197806;29;20421;-89
2022/08/03 08:49:40;;;;;;;2.40;1.77;;;;;;;;;;10196696;29;20902;-92
2022/08/03 08:54:45;;;;;;;4.30;1.90;;;;;;;;;;10180541;29;20887;-92
2022/08/03 08:59:47;;;;;;;2.17;1.70;;;;;;;;;;10207475;29;20420;-92
2022/08/03 09:04:49;;;;;;;2.57;1.70;;;;;;;;;;10197927;29;20501;-91
2022/08/03 09:09:53;;;;;;;2.90;1.73;;;;;;;;;;10196632;29;20468;-90
2022/08/03 09:14:55;;;;;;;2.70;1.90;;;;;;;;;;10204562;29;20430;-89
2022/08/03 09:20:06;;;;;;;1.80;1.63;;;;;;;;;;10207614;29;20428;-91
2022/08/03 09:25:11;;;;;;;1.92;1.70;;;;;;;;;;10206464;29;20432;-91
2022/08/03 09:30:15;;;;;;;1.90;1.70;;;;;;;;;;10227064;29;20921;-91
2022/08/03 09:35:17;;;;;;;2.15;1.80;;;;;;;;;;10242778;29;20491;-91
2022/08/03 09:40:35;;;;;;;2.43;1.97;;;;;;;;;;10240780;28;20543;-91
2022/08/03 09:45:38;;;;;;;2.40;1.93;;;;;;;;;;10243062;29;20416;-91
2022/08/03 09:50:49;;;;;;;1.83;1.65;;;;;;;;;;10225662;29;20821;-92
2022/08/03 09:55:54;;;;;;;3.63;1.90;;;;;;;;;;10241567;28;20451;-91
2022/08/03 10:00:59;;;;;;;3.50;1.85;;;;;;;;;;10243326;29;20499;-91
2022/08/03 10:06:15;;;;;;;2.65;1.73;;;;;;;;;;10242307;29;20530;-91
2022/08/03 10:11:31;;;;;;;2.10;1.90;;;;;;;;;;10241118;28;21198;-90
2022/08/03 10:16:35;;;;;;;2.50;1.70;;;;;;;;;;10242743;29;20821;-91
2022/08/03 10:21:38;;;;;;;2.72;1.85;;;;;;;;;;10241808;29;20451;-90
2022/08/03 10:26:45;;;;;;;3.57;1.80;;;;;;;;;;10238344;28;20997;-91
2022/08/03 10:31:48;;;;;;;2.57;1.73;;;;;;;;;;10236587;29;20921;-92
2022/08/03 10:36:53;;;;;;;2.20;1.80;;;;;;;;;;10228016;28;21079;-91
2022/08/03 10:41:58;;;;;;;2.42;1.80;;;;;;;;;;10235986;28;20420;-90
2022/08/03 10:47:01;;;;;;;2.80;1.90;;;;;;;;;;10239529;29;20789;-91
2022/08/03 10:52:04;;;;;;;3.38;1.80;;;;;;;;;;10239094;28;20416;-90
2022/08/03 11:02:23;;;;;;;2.00;1.90;;;;;;;;;;10235332;28;20420;-92
2022/08/03 11:07:25;;;;;;;2.10;2.00;;;;;;;;;;10287179;28;20421;-92
2022/08/03 11:12:30;;;;;;;2.20;2.00;;;;;;;;;;10237140;28;20423;-91
2022/08/03 11:17:32;;;;;;;2.08;1.95;;;;;;;;;;10238494;28;20456;-92
2022/08/03 11:22:49;;;;;;;1.95;1.85;;;;;;;;;;10241445;28;20507;-93
2022/08/03 11:28:28;;;;;;;3.50;1.73;;;;;;;;;;10238068;28;20430;-92
2022/08/03 11:33:30;;;;;;;1.80;1.70;;;;;;;;;;10239290;28;20416;-92
2022/08/03 11:38:32;;;;;;;2.13;1.90;;;;;;;;;;10234444;28;21000;-91
2022/08/03 11:43:51;;;;;;;2.13;1.92;;;;;;;;;;10236272;28;20503;-92
2022/08/03 11:48:57;;;;;;;2.08;1.85;;;;;;;;;;10228120;28;20432;-89
2022/08/03 11:54:01;;;;;;;2.38;1.90;;;;;;;;;;10235568;28;20426;-90
2022/08/03 11:59:05;;;;;;;2.60;2.03;;;;;;;;;;10234155;29;20964;-89
2022/08/03 12:04:07;;;;;;;2.20;2.00;;;;;;;;;;10233541;29;20472;-89
2022/08/03 12:09:18;;;;;;;2.10;1.73;;;;;;;;;;10233601;28;20427;-89
2022/08/03 12:14:21;;;;;;;1.80;1.70;;;;;;;;;;10233981;29;20526;-90
2022/08/03 12:19:23;;;;;;;1.98;1.80;;;;;;;;;;10235307;29;20917;-89
2022/08/03 12:24:41;;;;;;;2.30;1.80;;;;;;;;;;10226599;28;20519;-90
2022/08/03 12:29:51;;;;;;;3.47;1.80;;;;;;;;;;10236321;29;20933;-90
2022/08/03 12:34:53;;;;;;;2.40;1.75;;;;;;;;;;10235667;29;20968;-89
2022/08/03 12:39:58;;;;;;;1.67;1.57;;;;;;;;;;10234243;28;20434;-88
2022/08/03 12:45:18;;;;;;;2.00;1.77;;;;;;;;;;10237536;28;20416;-88
2022/08/03 12:50:27;;;;;;;2.10;1.90;;;;;;;;;;10234736;28;20436;-90
2022/08/03 12:55:33;;;;;;;1.70;1.60;;;;;;;;;;10234965;28;20571;-89
2022/08/03 13:00:37;;;;;;;1.75;1.65;;;;;;;;;;10232865;28;20800;-90
2022/08/03 13:05:48;;;;;;;1.87;1.70;;;;;;;;;;10233883;28;20420;-90
2022/08/03 13:10:50;;;;;;;1.80;1.70;;;;;;;;;;10232633;28;20464;-89
2022/08/03 13:15:54;;;;;;;1.90;1.37;;;;;;;;;;10233875;28;20953;-88
2022/08/03 13:20:55;;;;;;;1.70;1.60;;;;;;;;;;10236588;28;20495;-89
2022/08/03 13:25:57;;;;;;;1.47;1.37;;;;;;;;;;10232218;28;20886;-89
2022/08/03 13:31:01;;;;;;;2.00;1.40;;;;;;;;;;10229276;28;20523;-90
2022/08/03 13:36:03;;;;;;;1.50;1.40;;;;;;;;;;10234018;29;20451;-89
2022/08/03 13:41:04;;;;;;;1.55;1.30;;;;;;;;;;10239642;28;21131;-89
2022/08/03 13:46:08;;;;;;;1.27;1.23;;;;;;;;;;10249765;28;20900;-89
2022/08/03 13:51:10;;;;;;;2.25;1.45;;;;;;;;;;10239763;28;20537;-89
2022/08/03 13:56:12;;;;;;;1.52;1.42;;;;;;;;;;10240183;28;20412;-89
2022/08/03 14:01:15;;;;;;;2.57;1.50;;;;;;;;;;10244772;28;20499;-89
2022/08/03 14:06:17;;;;;;;1.45;1.23;;;;;;;;;;10245302;28;20440;-88
2022/08/03 14:11:19;;;;;;;1.30;1.20;;;;;;;;;;10243290;28;20988;-90
2022/08/03 14:16:22;;;;;;;1.45;1.20;;;;;;;;;;10242843;28;20757;-89
2022/08/03 14:21:26;;;;;;;1.40;1.27;;;;;;;;;;10252548;23;20543;-81
2022/08/03 14:26:29;;;;;;;1.48;1.38;;;;;;;;;;10235207;28;20408;-81
2022/08/03 14:31:33;;;;;;;1.50;1.30;;;;;;;;;;10238222;28;20440;-81
2022/08/03 14:36:34;;;;;;;1.30;1.20;;;;;;;;;;10239819;28;20943;-83
2022/08/03 14:41:36;;;;;;;1.15;1.10;;;;;;;;;;10232198;28;20778;-82
2022/08/03 14:46:40;;;;;;;1.25;1.00;;;;;;;;;;10234532;28;20412;-84
2022/08/03 14:51:42;;;;;;;1.00;1.00;;;;;;;;;;10234147;28;20431;-80
2022/08/03 14:56:43;;;;;;;1.95;1.05;;;;;;;;;;10237516;28;20413;-83
2022/08/03 15:01:47;;;;;;;1.40;1.30;;;;;;;;;;10234337;29;20828;-82
2022/08/03 15:06:48;;;;;;;1.58;1.40;;;;;;;;;;10231525;29;20447;-81
2022/08/03 15:11:50;;;;;;;1.63;1.50;;;;;;;;;;10234273;28;20458;-88
2022/08/03 15:16:54;;;;;;;2.47;1.80;;;;;;;;;;10236373;29;20848;-85
2022/08/03 15:21:55;;;;;;;2.17;1.73;;;;;;;;;;10235278;28;20450;-85
2022/08/03 15:26:58;;;;;;;2.30;1.93;;;;;;;;;;10235559;28;20930;-84
2022/08/03 15:32:01;;;;;;;1.70;1.60;;;;;;;;;;10237166;29;20780;-84
2022/08/03 15:37:04;;;;;;;1.87;1.40;;;;;;;;;;10234306;29;20411;-84
2022/08/03 15:42:06;;;;;;;1.50;1.23;;;;;;;;;;10237292;28;20415;-84
2022/08/03 15:47:09;;;;;;;2.70;1.52;;;;;;;;;;10234685;29;20495;-87
2022/08/03 15:52:11;;;;;;;1.20;1.10;;;;;;;;;;10235529;28;20435;-84
2022/08/03 15:57:12;;;;;;;1.97;1.10;;;;;;;;;;10234089;28;20845;-82
2022/08/03 16:02:16;;;;;;;1.65;1.20;;;;;;;;;;10233589;29;20889;-83
2022/08/03 16:07:41;;;;;;;3.13;1.10;;;;;;;;;;10233984;29;20506;-83
2022/08/03 16:12:40;;;;;;;1.30;0.93;;;;;;;;;;10230350;28;20419;-84
2022/08/03 16:17:44;;;;;;;1.13;1.03;;;;;;;;;;10231888;29;20491;-84
2022/08/03 16:22:48;;;;;;;2.05;0.80;;;;;;;;;;10228812;28;20431;-84
2022/08/03 16:27:50;;;;;;;1.40;0.90;;;;;;;;;;10227764;28;21027;-84
2022/08/03 16:32:53;;;;;;;2.50;1.00;;;;;;;;;;10228966;29;20416;-84
2022/08/03 16:37:55;;;;;;;1.33;1.00;;;;;;;;;;10229688;29;20499;-84
2022/08/03 16:42:57;;;;;;;1.17;0.90;;;;;;;;;;10230890;28;20438;-84
2022/08/03 16:48:00;;;;;;;0.85;0.85;;;;;;;;;;10230982;29;20430;-84
2022/08/03 16:53:07;;;;;;;1.73;0.90;;;;;;;;;;10227719;28;20428;-84
2022/08/03 16:58:13;;;;;;;0.75;0.75;;;;;;;;;;10220904;28;20432;-84
2022/08/03 17:03:23;;;;;;;2.10;0.90;;;;;;;;;;10223244;28;20404;-83
2022/08/03 17:08:28;;;;;;;1.10;0.80;;;;;;;;;;10226493;28;20435;-84
2022/08/03 17:13:33;;;;;;;0.88;0.80;;;;;;;;;;10224907;28;20415;-83
2022/08/03 17:18:43;;;;;;;0.90;0.90;;;;;;;;;;10208131;28;20772;-84
2022/08/03 17:23:55;;;;;;;1.50;0.70;;;;;;;;;;10226660;28;20482;-85
2022/08/03 17:29:05;;;;;;;0.40;0.40;;;;;;;;;;10222643;28;20464;-84
2022/08/03 17:34:12;;;;;;;1.83;0.60;;;;;;;;;;10230299;28;20890;-83
2022/08/03 17:39:19;;;;;;;2.10;0.80;;;;;;;;;;10233204;28;20962;-83
2022/08/03 17:44:26;;;;;;;0.80;0.60;;;;;;;;;;10231420;28;20408;-84
2022/08/03 17:49:34;;;;;;;0.65;0.63;;;;;;;;;;10234703;28;20518;-85
2022/08/03 17:54:46;;;;;;;2.95;0.82;;;;;;;;;;10242520;28;20411;-85
2022/08/03 17:59:57;;;;;;;2.15;0.60;;;;;;;;;;10242888;28;20410;-85
2022/08/03 18:05:07;;;;;;;1.40;0.63;;;;;;;;;;10232897;28;20604;-80
2022/08/03 18:10:12;;;;;;;1.00;0.70;;;;;;;;;;10234365;28;20439;-84
2022/08/03 18:15:25;;;;;;;0.90;0.60;;;;;;;;;;10233357;28;20414;-83
2022/08/03 18:20:34;;;;;;;1.37;0.73;;;;;;;;;;10233759;28;20848;-85
2022/08/03 18:25:42;;;;;;;1.65;1.00;;;;;;;;;;10236734;28;20416;-85
2022/08/03 18:30:48;;;;;;;0.70;0.70;;;;;;;;;;10234675;28;20432;-85
2022/08/03 18:35:58;;;;;;;1.33;0.85;;;;;;;;;;10231185;28;20416;-84
2022/08/03 18:41:04;;;;;;;2.15;0.90;;;;;;;;;;10233078;28;21245;-85
2022/08/03 18:46:24;;;;;;;1.40;0.80;;;;;;;;;;10230946;28;20487;-84
2022/08/03 18:51:33;;;;;;;2.10;0.70;;;;;;;;;;10232651;28;20432;-86
2022/08/03 18:56:46;;;;;;;2.58;0.90;;;;;;;;;;10235094;28;20427;-86
2022/08/03 19:01:53;;;;;;;1.40;0.90;;;;;;;;;;10235627;28;20821;-86
2022/08/03 19:07:04;;;;;;;1.98;1.10;;;;;;;;;;10236245;28;20408;-86
2022/08/03 19:12:15;;;;;;;1.30;0.90;;;;;;;;;;10233667;28;20909;-85
2022/08/03 19:17:22;;;;;;;1.20;0.80;;;;;;;;;;10234569;28;20487;-85
2022/08/03 19:22:30;;;;;;;2.15;0.80;;;;;;;;;;10234137;28;20842;-85
2022/08/03 19:27:36;;;;;;;1.42;0.80;;;;;;;;;;10232684;28;20765;-85
2022/08/03 19:32:43;;;;;;;0.95;0.88;;;;;;;;;;10233512;28;20897;-85
2022/08/03 19:37:51;;;;;;;1.03;1.00;;;;;;;;;;10240314;28;20410;-86
2022/08/03 19:43:00;;;;;;;1.80;1.07;;;;;;;;;;10235748;28;20434;-86
2022/08/03 19:48:09;;;;;;;6.60;1.40;;;;;;;;;;10235686;28;20414;-84
2022/08/03 19:53:17;;;;;;;2.05;1.20;;;;;;;;;;10233897;28;20927;-84
2022/08/03 19:58:26;;;;;;;2.35;1.20;;;;;;;;;;10229061;28;20415;-86
2022/08/03 20:03:32;;;;;;;2.87;1.40;;;;;;;;;;10233682;28;20419;-85
2022/08/03 20:08:42;;;;;;;1.90;1.20;;;;;;;;;;10231801;28;20422;-85
2022/08/03 20:13:50;;;;;;;2.70;1.50;;;;;;;;;;10232788;28;20408;-85
2022/08/03 20:18:55;;;;;;;3.03;1.60;;;;;;;;;;10233459;28;20511;-85
2022/08/03 20:24:05;;;;;;;2.97;1.70;;;;;;;;;;10233891;28;20636;-85
2022/08/03 20:29:12;;;;;;;2.33;1.58;;;;;;;;;;10231726;28;20420;-84
2022/08/03 20:34:18;;;;;;;2.22;1.60;;;;;;;;;;10232829;28;20418;-84
2022/08/03 20:39:25;;;;;;;3.58;1.73;;;;;;;;;;10232541;28;20420;-84
2022/08/03 20:44:31;;;;;;;2.00;1.80;;;;;;;;;;10231608;28;20487;-85
2022/08/03 20:49:39;;;;;;;4.90;1.70;;;;;;;;;;10232527;28;20922;-85
2022/08/03 20:54:47;;;;;;;2.33;1.98;;;;;;;;;;10237058;28;20494;-85
2022/08/03 20:59:53;;;;;;;3.33;2.10;;;;;;;;;;10244509;28;20818;-85
2022/08/03 21:04:58;;;;;;;5.30;2.47;;;;;;;;;;10228836;28;20408;-85
2022/08/03 21:10:08;;;;;;;2.88;1.90;;;;;;;;;;10236815;28;20423;-85
2022/08/03 21:15:14;;;;;;;3.97;2.03;;;;;;;;;;10242692;29;20750;-85
2022/08/03 21:20:21;;;;;;;3.47;2.13;;;;;;;;;;10243652;28;20924;-84
2022/08/03 21:25:30;;;;;;;3.30;2.10;;;;;;;;;;10240594;28;20609;-83
2022/08/03 21:30:36;;;;;;;3.33;2.08;;;;;;;;;;10237667;28;20442;-85
2022/08/03 21:35:42;;;;;;;3.08;2.00;;;;;;;;;;10242709;28;20419;-84
2022/08/03 21:40:50;;;;;;;4.80;2.20;;;;;;;;;;10246691;28;20914;-84
2022/08/03 21:45:59;;;;;;;4.53;2.72;;;;;;;;;;10246217;29;20411;-85
2022/08/03 21:51:06;;;;;;;3.63;2.53;;;;;;;;;;10244449;28;20427;-84
2022/08/03 21:56:13;;;;;;;4.35;2.75;;;;;;;;;;10243259;28;20411;-85
2022/08/03 22:01:20;;;;;;;5.40;3.00;;;;;;;;;;10242541;28;20491;-85
2022/08/03 22:06:27;;;;;;;6.47;3.60;;;;;;;;;;10245401;28;20529;-85
2022/08/03 22:11:35;;;;;;;5.10;3.73;;;;;;;;;;10239606;28;20428;-85
2022/08/03 22:16:42;;;;;;;7.00;4.30;;;;;;;;;;10248292;28;20407;-84
2022/08/03 22:21:49;;;;;;;5.00;4.28;;;;;;;;;;10236456;28;20924;-85
2022/08/03 22:32:18;;;;;;;9.17;5.00;;;;;;;;;;10235903;29;20463;-84
2022/08/03 22:37:26;;;;;;;6.40;4.60;;;;;;;;;;10236715;28;20404;-84
2022/08/03 22:42:33;;;;;;;7.43;4.60;;;;;;;;;;10231079;29;20415;-84
2022/08/03 22:47:41;;;;;;;9.50;4.90;;;;;;;;;;10237874;29;20666;-84
2022/08/03 22:52:46;;;;;;;5.88;4.20;;;;;;;;;;10233716;28;20716;-82
2022/08/03 22:57:54;;;;;;;5.83;3.90;;;;;;;;;;10232380;28;20423;-84
2022/08/03 23:03:00;;;;;;;5.22;3.58;;;;;;;;;;10233307;29;20841;-84
2022/08/03 23:08:10;;;;;;;5.20;3.50;;;;;;;;;;10230636;29;20604;-84
2022/08/03 23:13:16;;;;;;;5.60;3.45;;;;;;;;;;10229378;28;20440;-82
2022/08/03 23:18:21;;;;;;;4.78;3.22;;;;;;;;;;10225932;29;20483;-83
2022/08/03 23:23:23;;;;;;;5.10;3.40;;;;;;;;;;10224741;28;20424;-83
2022/08/03 23:28:29;;;;;;;5.60;3.10;;;;;;;;;;10226674;28;20569;-82
2022/08/03 23:33:33;;;;;;;4.30;3.10;;;;;;;;;;10234831;28;20428;-83
2022/08/03 23:38:36;;;;;;;4.20;2.90;;;;;;;;;;10233071;28;20592;-83
2022/08/03 23:43:40;;;;;;;4.60;3.17;;;;;;;;;;10237595;28;20866;-84
2022/08/03 23:48:42;;;;;;;3.50;3.20;;;;;;;;;;10239252;28;20414;-83
2022/08/03 23:53:50;;;;;;;3.40;3.10;;;;;;;;;;10235959;28;20442;-84
2022/08/03 23:59:05;;;;;;;4.50;3.33;;;;;;;;;;10236839;29;20404;-83
